createdAt,value
2023-02-13T00:00:55.845Z,100.00
2023-02-13T00:03:22.798Z,100.00
2023-02-13T00:05:49.308Z,100.00
2023-02-13T00:08:17.651Z,100.00
2023-02-13T00:10:44.197Z,100.00
2023-02-13T00:13:10.676Z,100.00
2023-02-13T00:15:37.426Z,100.00
2023-02-13T00:18:06.252Z,100.00
2023-02-13T00:20:32.815Z,100.00
2023-02-13T00:23:01.476Z,100.00
2023-02-13T00:25:28.276Z,100.00
2023-02-13T00:27:54.823Z,100.00
2023-02-13T00:30:25.916Z,100.00
2023-02-13T00:32:52.476Z,100.00
2023-02-13T00:35:19.043Z,100.00
2023-02-13T00:37:45.550Z,100.00
2023-02-13T00:40:12.593Z,100.00
2023-02-13T00:42:39.064Z,100.00
2023-02-13T00:45:07.485Z,100.00
2023-02-13T00:47:34.010Z,100.00
2023-02-13T00:50:00.551Z,100.00
2023-02-13T00:52:28.814Z,100.00
2023-02-13T00:54:55.360Z,100.00
2023-02-13T00:57:22.225Z,100.00
2023-02-13T00:59:51.166Z,100.00
2023-02-13T01:02:18.436Z,100.00
2023-02-13T01:04:44.908Z,100.00
2023-02-13T01:07:14.286Z,100.00
2023-02-13T01:09:42.303Z,100.00
2023-02-13T01:12:10.864Z,100.00
2023-02-13T01:14:37.645Z,100.00
2023-02-13T01:17:04.258Z,100.00
2023-02-13T01:19:30.753Z,100.00
2023-02-13T01:21:59.464Z,100.00
2023-02-13T01:24:29.959Z,100.00
2023-02-13T01:26:56.503Z,100.00
2023-02-13T01:29:32.379Z,100.00
2023-02-13T01:32:02.705Z,100.00
2023-02-13T01:34:29.252Z,100.00
2023-02-13T01:36:57.461Z,100.00
2023-02-13T01:39:24.274Z,100.00
2023-02-13T01:41:50.838Z,100.00
2023-02-13T01:44:48.253Z,100.00
2023-02-13T01:47:20.642Z,100.00
2023-02-13T01:49:55.830Z,100.00
2023-02-13T01:52:22.430Z,100.00
2023-02-13T01:54:50.751Z,100.00
2023-02-13T01:57:27.594Z,100.00
2023-02-13T02:00:06.227Z,100.00
2023-02-13T02:02:39.331Z,100.00
2023-02-13T02:05:08.856Z,100.00
2023-02-13T02:07:37.390Z,100.00
2023-02-13T02:10:08.426Z,100.00
2023-02-13T02:12:43.600Z,100.00
2023-02-13T02:15:16.572Z,100.00
2023-02-13T02:17:43.178Z,100.00
2023-02-13T02:20:29.860Z,100.00
2023-02-13T02:23:17.196Z,100.00
2023-02-13T02:26:20.773Z,100.00
2023-02-13T02:29:20.495Z,100.00
2023-02-13T02:32:07.411Z,100.00
2023-02-13T02:34:45.725Z,100.00
2023-02-13T02:37:24.514Z,100.00
2023-02-13T02:39:56.964Z,100.00
2023-02-13T02:42:32.431Z,100.00
2023-02-13T02:45:28.775Z,100.00
2023-02-13T02:48:31.193Z,100.00
2023-02-13T02:51:12.432Z,100.00
2023-02-13T02:53:49.284Z,100.00
2023-02-13T02:56:23.377Z,100.00
2023-02-13T02:59:20.511Z,100.00
2023-02-13T03:02:06.928Z,100.00
2023-02-13T03:04:59.268Z,100.00
2023-02-13T03:07:26.913Z,100.00
2023-02-13T03:10:24.394Z,100.00
2023-02-13T03:13:18.693Z,100.00
2023-02-13T03:16:08.126Z,100.00
2023-02-13T03:18:58.091Z,100.00
2023-02-13T03:21:51.360Z,100.00
2023-02-13T03:24:28.154Z,100.00
2023-02-13T03:27:44.877Z,100.00
2023-02-13T03:30:23.254Z,100.00
2023-02-13T03:32:57.176Z,100.00
2023-02-13T03:36:05.432Z,100.00
2023-02-13T03:38:39.628Z,100.00
2023-02-13T03:41:20.087Z,100.00
2023-02-13T03:44:00.731Z,100.00
2023-02-13T03:46:31.405Z,100.00
2023-02-13T03:49:20.261Z,100.00
2023-02-13T03:51:55.274Z,100.00
2023-02-13T03:54:47.528Z,100.00
2023-02-13T03:57:38.432Z,100.00
2023-02-13T04:00:12.402Z,100.00
2023-02-13T04:02:48.259Z,100.00
2023-02-13T04:05:26.396Z,100.00
2023-02-13T04:07:52.962Z,100.00
2023-02-13T04:10:20.356Z,100.00
2023-02-13T04:13:11.393Z,100.00
2023-02-13T04:15:46.190Z,100.00
2023-02-13T04:18:19.216Z,100.00
2023-02-13T04:20:45.807Z,100.00
2023-02-13T04:23:13.109Z,100.00
2023-02-13T04:25:44.363Z,100.00
2023-02-13T04:28:11.152Z,100.00
2023-02-13T04:30:38.586Z,100.00
2023-02-13T04:33:11.349Z,100.00
2023-02-13T04:35:37.885Z,100.00
2023-02-13T04:38:04.778Z,100.00
2023-02-13T04:40:33.506Z,100.00
2023-02-13T04:43:00.445Z,100.00
2023-02-13T04:45:28.916Z,100.00
2023-02-13T04:47:58.500Z,100.00
2023-02-13T04:50:25.666Z,100.00
2023-02-13T04:52:57.117Z,100.00
2023-02-13T04:55:30.479Z,100.00
2023-02-13T04:57:57.252Z,100.00
2023-02-13T05:00:26.062Z,100.00
2023-02-13T05:02:54.380Z,100.00
2023-02-13T05:05:21.514Z,100.00
2023-02-13T05:07:48.028Z,100.00
2023-02-13T05:10:14.688Z,100.00
2023-02-13T05:12:41.230Z,100.00
2023-02-13T05:15:08.522Z,100.00
2023-02-13T05:17:47.487Z,100.00
2023-02-13T05:20:16.922Z,100.00
2023-02-13T05:23:10.265Z,100.00
2023-02-13T05:25:38.447Z,100.00
2023-02-13T05:28:26.061Z,100.00
2023-02-13T05:30:52.825Z,100.00
2023-02-13T05:33:21.305Z,100.00
2023-02-13T05:35:55.771Z,100.00
2023-02-13T05:38:22.285Z,100.00
2023-02-13T05:40:48.754Z,100.00
2023-02-13T05:43:17.445Z,100.00
2023-02-13T05:45:44.058Z,100.00
2023-02-13T05:48:10.797Z,100.00
2023-02-13T05:50:37.426Z,100.00
2023-02-13T05:53:04.204Z,100.00
2023-02-13T05:55:30.649Z,100.00
2023-02-13T05:57:58.329Z,100.00
2023-02-13T06:00:25.479Z,100.00
2023-02-13T06:02:52.191Z,100.00
2023-02-13T06:05:18.951Z,100.00
2023-02-13T06:07:45.468Z,100.00
2023-02-13T06:10:12.053Z,100.00
2023-02-13T06:12:38.780Z,100.00
2023-02-13T06:15:06.282Z,100.00
2023-02-13T06:17:32.754Z,100.00
2023-02-13T06:20:05.640Z,100.00
2023-02-13T06:22:32.193Z,100.00
2023-02-13T06:24:58.682Z,100.00
2023-02-13T06:27:25.327Z,100.00
2023-02-13T06:29:51.841Z,100.00
2023-02-13T06:32:18.300Z,100.00
2023-02-13T06:34:49.221Z,100.00
2023-02-13T06:37:15.696Z,100.00
2023-02-13T06:39:42.856Z,100.00
2023-02-13T06:42:09.645Z,100.00
2023-02-13T06:44:36.109Z,100.00
2023-02-13T06:47:04.919Z,100.00
2023-02-13T06:49:33.214Z,100.00
2023-02-13T06:51:59.698Z,100.00
2023-02-13T06:54:41.098Z,100.00
2023-02-13T06:57:12.789Z,100.00
2023-02-13T06:59:41.155Z,100.00
2023-02-13T07:02:10.480Z,100.00
2023-02-13T07:04:41.209Z,100.00
2023-02-13T07:07:07.709Z,100.00
2023-02-13T07:09:34.166Z,100.00
2023-02-13T07:12:15.228Z,100.00
2023-02-13T07:14:41.710Z,100.00
2023-02-13T07:17:08.194Z,100.00
2023-02-13T07:19:34.790Z,100.00
2023-02-13T07:22:05.074Z,100.00
2023-02-13T07:24:33.757Z,100.00
2023-02-13T07:27:00.367Z,100.00
2023-02-13T07:29:27.369Z,100.00
2023-02-13T07:31:53.941Z,100.00
2023-02-13T07:34:26.760Z,100.00
2023-02-13T07:36:53.349Z,100.00
2023-02-13T07:42:14.577Z,100.00
2023-02-13T07:44:41.255Z,100.00
2023-02-13T07:47:07.875Z,100.00
2023-02-13T07:49:34.504Z,100.00
2023-02-13T07:52:00.937Z,100.00
2023-02-13T07:54:30.809Z,100.00
2023-02-13T07:57:01.971Z,100.00
2023-02-13T07:59:28.423Z,100.00
2023-02-13T08:01:56.842Z,100.00
2023-02-13T08:04:25.398Z,100.00
2023-02-13T08:06:52.785Z,100.00
2023-02-13T08:09:42.654Z,100.00
2023-02-13T08:12:09.819Z,100.00
2023-02-13T08:14:36.309Z,100.00
2023-02-13T08:17:02.993Z,100.00
2023-02-13T08:19:29.772Z,100.00
2023-02-13T08:22:00.053Z,100.00
2023-02-13T08:24:30.858Z,100.00
2023-02-13T08:26:57.394Z,100.00
2023-02-13T08:29:23.924Z,100.00
2023-02-13T08:31:50.630Z,100.00
2023-02-13T08:34:17.263Z,100.00
2023-02-13T08:36:43.778Z,100.00
2023-02-13T08:39:10.841Z,100.00
2023-02-13T08:41:40.860Z,100.00
2023-02-13T08:44:11.069Z,100.00
2023-02-13T08:46:39.425Z,100.00
2023-02-13T08:49:06.006Z,100.00
2023-02-13T08:51:33.044Z,100.00
2023-02-13T08:54:04.080Z,100.00
2023-02-13T08:56:30.609Z,100.00
2023-02-13T08:58:57.345Z,100.00
2023-02-13T09:01:24.544Z,100.00
2023-02-13T09:03:54.700Z,100.00
2023-02-13T09:06:21.873Z,100.00
2023-02-13T09:08:48.508Z,100.00
2023-02-13T09:11:14.960Z,100.00
2023-02-13T09:13:43.833Z,100.00
2023-02-13T09:16:11.491Z,100.00
2023-02-13T09:18:38.032Z,100.00
2023-02-13T09:21:07.308Z,100.00
2023-02-13T09:23:37.749Z,100.00
2023-02-13T09:26:07.132Z,100.00
2023-02-13T09:28:34.927Z,99.12
2023-02-13T09:31:13.414Z,98.54
2023-02-13T09:33:39.988Z,98.02
2023-02-13T09:36:08.881Z,97.49
2023-02-13T09:38:37.632Z,97.64
2023-02-13T09:41:10.512Z,96.96
2023-02-13T09:43:41.790Z,95.35
2023-02-13T09:46:14.341Z,96.16
2023-02-13T09:48:53.407Z,95.75
2023-02-13T09:51:25.901Z,94.08
2023-02-13T09:53:55.710Z,94.62
2023-02-13T09:56:52.157Z,93.72
2023-02-13T09:59:46.821Z,96.56
2023-02-13T10:02:38.024Z,94.38
2023-02-13T10:05:38.343Z,91.55
2023-02-13T10:08:21.232Z,90.32
2023-02-13T10:11:11.306Z,92.93
2023-02-13T10:14:08.187Z,92.36
2023-02-13T10:16:55.641Z,92.16
2023-02-13T10:19:50.204Z,91.36
2023-02-13T10:22:26.058Z,93.24
2023-02-13T10:25:12.708Z,93.16
2023-02-13T10:27:45.371Z,91.83
2023-02-13T10:30:22.312Z,90.89
2023-02-13T10:33:18.749Z,90.66
2023-02-13T10:36:11.552Z,89.26
2023-02-13T10:39:01.774Z,88.10
2023-02-13T10:41:39.846Z,87.60
2023-02-13T10:44:12.255Z,87.50
2023-02-13T10:47:20.224Z,89.23
2023-02-13T10:49:58.595Z,88.24
2023-02-13T10:52:35.922Z,88.75
2023-02-13T10:55:24.807Z,87.71
2023-02-13T10:57:51.335Z,86.37
2023-02-13T11:00:33.950Z,86.08
2023-02-13T11:03:02.551Z,85.92
2023-02-13T11:05:37.686Z,86.96
2023-02-13T11:08:25.872Z,86.93
2023-02-13T11:10:53.024Z,87.22
2023-02-13T11:13:22.689Z,86.14
2023-02-13T11:16:17.426Z,84.82
2023-02-13T11:18:50.008Z,85.88
2023-02-13T11:21:22.002Z,84.91
2023-02-13T11:23:56.313Z,84.78
2023-02-13T11:26:33.584Z,85.49
2023-02-13T11:29:04.222Z,84.58
2023-02-13T11:31:33.767Z,85.12
2023-02-13T11:34:27.944Z,85.39
2023-02-13T11:37:14.663Z,85.98
2023-02-13T11:39:44.529Z,85.44
2023-02-13T11:42:15.079Z,84.75
2023-02-13T11:44:44.169Z,85.38
2023-02-13T11:47:11.113Z,85.24
2023-02-13T11:49:39.599Z,85.12
2023-02-13T11:52:20.228Z,85.23
2023-02-13T11:54:55.887Z,84.81
2023-02-13T11:57:36.616Z,84.78
2023-02-13T12:00:30.091Z,85.57
2023-02-13T12:03:03.264Z,85.42
2023-02-13T12:05:29.847Z,84.50
2023-02-13T12:08:01.629Z,83.19
2023-02-13T12:10:32.113Z,84.12
2023-02-13T12:13:13.649Z,83.44
2023-02-13T12:15:43.524Z,83.89
2023-02-13T12:18:16.116Z,83.32
2023-02-13T12:21:05.973Z,83.76
2023-02-13T12:23:47.218Z,83.87
2023-02-13T12:26:41.245Z,84.58
2023-02-13T12:29:48.088Z,84.24
2023-02-13T12:32:49.257Z,83.47
2023-02-13T12:35:44.895Z,83.46
2023-02-13T12:38:25.977Z,83.99
2023-02-13T12:41:23.885Z,84.91
2023-02-13T12:44:05.703Z,84.01
2023-02-13T12:46:54.917Z,83.41
2023-02-13T12:49:38.562Z,83.30
2023-02-13T12:52:17.881Z,84.05
2023-02-13T12:55:07.819Z,83.17
2023-02-13T12:57:44.244Z,83.65
2023-02-13T13:00:18.710Z,83.72
2023-02-13T13:03:16.151Z,84.39
2023-02-13T13:06:27.821Z,82.55
2023-02-13T13:09:12.812Z,82.64
2023-02-13T13:12:23.609Z,82.71
2023-02-13T13:15:21.895Z,83.99
2023-02-13T13:18:09.358Z,83.02
2023-02-13T13:21:02.666Z,83.22
2023-02-13T13:23:44.543Z,83.49
2023-02-13T13:26:41.176Z,83.79
2023-02-13T13:29:19.803Z,82.41
2023-02-13T13:31:54.273Z,81.43
2023-02-13T13:34:25.714Z,82.36
2023-02-13T13:37:03.005Z,81.93
2023-02-13T13:39:55.311Z,82.56
2023-02-13T13:42:51.249Z,81.89
2023-02-13T13:45:21.052Z,82.35
2023-02-13T13:48:05.692Z,82.01
2023-02-13T13:50:39.368Z,80.74
2023-02-13T13:53:21.136Z,81.17
2023-02-13T13:55:52.460Z,81.16
2023-02-13T13:58:39.939Z,81.27
2023-02-13T14:01:27.564Z,81.93
2023-02-13T14:04:03.649Z,80.17
2023-02-13T14:06:47.111Z,79.13
2023-02-13T14:09:40.632Z,80.11
2023-02-13T14:12:27.096Z,80.29
2023-02-13T14:14:54.573Z,79.95
2023-02-13T14:17:47.657Z,80.32
2023-02-13T14:20:37.695Z,80.24
2023-02-13T14:23:15.368Z,80.27
2023-02-13T14:25:42.169Z,80.77
2023-02-13T14:28:21.016Z,80.16
2023-02-13T14:30:51.321Z,79.57
2023-02-13T14:33:32.293Z,80.43
2023-02-13T14:36:04.553Z,79.04
2023-02-13T14:38:31.629Z,78.95
2023-02-13T14:41:04.697Z,79.15
2023-02-13T14:43:48.742Z,79.19
2023-02-13T14:49:26.588Z,80.40
2023-02-13T14:52:00.452Z,80.27
2023-02-13T14:54:34.653Z,79.71
2023-02-13T14:57:18.414Z,79.53
2023-02-13T14:59:51.020Z,79.14
2023-02-13T15:02:28.589Z,80.28
2023-02-13T15:05:16.561Z,79.83
2023-02-13T15:07:51.107Z,79.82
2023-02-13T15:10:35.149Z,79.86
2023-02-13T15:13:07.152Z,80.20
2023-02-13T15:15:36.655Z,80.37
2023-02-13T15:18:09.623Z,80.00
2023-02-13T15:20:41.919Z,80.00
2023-02-13T15:23:20.147Z,79.70
2023-02-13T15:25:48.538Z,80.42
2023-02-13T15:28:20.018Z,79.29
2023-02-13T15:31:07.885Z,80.82
2023-02-13T15:33:46.845Z,80.69
2023-02-13T15:36:24.307Z,81.15
2023-02-13T15:39:09.793Z,81.67
2023-02-13T15:41:45.499Z,81.74
2023-02-13T15:44:22.137Z,81.66
2023-02-13T15:46:54.324Z,81.58
2023-02-13T15:49:24.564Z,81.34
2023-02-13T15:52:04.089Z,81.61
2023-02-13T15:54:32.750Z,81.19
2023-02-13T15:57:02.542Z,81.55
2023-02-13T15:59:36.526Z,82.44
2023-02-13T16:02:09.297Z,82.23
2023-02-13T16:04:36.340Z,82.78
2023-02-13T16:07:07.262Z,82.93
2023-02-13T16:09:35.246Z,82.69
2023-02-13T16:12:17.619Z,83.56
2023-02-13T16:15:05.238Z,83.31
2023-02-13T16:17:37.693Z,83.71
2023-02-13T16:20:29.309Z,83.75
2023-02-13T16:23:01.582Z,83.96
2023-02-13T16:25:33.036Z,84.01
2023-02-13T16:28:25.375Z,84.35
2023-02-13T16:31:05.012Z,84.80
2023-02-13T16:33:37.523Z,85.19
2023-02-13T16:36:10.170Z,85.73
2023-02-13T16:38:39.090Z,85.66
2023-02-13T16:41:22.321Z,86.29
2023-02-13T16:43:53.366Z,86.44
2023-02-13T16:46:30.758Z,87.54
2023-02-13T16:49:08.716Z,87.11
2023-02-13T16:52:05.814Z,87.07
2023-02-13T16:54:37.381Z,87.76
2023-02-13T16:57:21.486Z,87.51
2023-02-13T16:59:54.219Z,87.88
2023-02-13T17:02:23.949Z,88.27
2023-02-13T17:05:04.583Z,89.38
2023-02-13T17:07:34.363Z,89.26
2023-02-13T17:10:03.564Z,89.14
2023-02-13T17:12:34.256Z,89.90
2023-02-13T17:15:01.117Z,89.96
2023-02-13T17:17:30.770Z,90.71
2023-02-13T17:20:02.356Z,91.36
2023-02-13T17:22:34.561Z,91.52
2023-02-13T17:25:02.745Z,91.33
2023-02-13T17:27:29.593Z,92.23
2023-02-13T17:29:56.094Z,91.92
2023-02-13T17:32:25.310Z,92.67
2023-02-13T17:34:52.412Z,92.93
2023-02-13T17:37:27.466Z,93.35
2023-02-13T17:40:05.473Z,94.50
2023-02-13T17:42:32.179Z,95.43
2023-02-13T17:44:58.964Z,94.76
2023-02-13T17:47:28.480Z,95.60
2023-02-13T17:50:02.001Z,96.68
2023-02-13T17:52:32.439Z,95.54
2023-02-13T17:54:58.964Z,95.99
2023-02-13T17:57:25.472Z,97.00
2023-02-13T17:59:52.039Z,96.18
2023-02-13T18:02:21.940Z,97.13
2023-02-13T18:04:49.147Z,96.25
2023-02-13T18:07:20.732Z,96.46
2023-02-13T18:09:47.750Z,97.40
2023-02-13T18:12:23.098Z,98.21
2023-02-13T18:14:54.917Z,97.70
2023-02-13T18:17:21.451Z,97.47
2023-02-13T18:19:49.735Z,97.46
2023-02-13T18:22:16.347Z,98.36
2023-02-13T18:24:43.042Z,97.52
2023-02-13T18:27:13.618Z,98.41
2023-02-13T18:29:40.322Z,98.97
2023-02-13T18:32:12.235Z,99.06
2023-02-13T18:34:40.716Z,99.67
2023-02-13T18:37:08.481Z,98.70
2023-02-13T18:39:35.132Z,99.35
2023-02-13T18:42:02.236Z,99.12
2023-02-13T18:44:29.181Z,98.99
2023-02-13T18:46:55.860Z,99.44
2023-02-13T18:49:22.423Z,100.00
2023-02-13T18:51:48.931Z,99.20
2023-02-13T18:54:16.389Z,100.00
2023-02-13T18:56:44.640Z,100.00
2023-02-13T18:59:11.216Z,100.00
2023-02-13T19:01:37.870Z,100.00
2023-02-13T19:04:04.975Z,100.00
2023-02-13T19:06:33.729Z,100.00
2023-02-13T19:09:00.250Z,100.00
2023-02-13T19:11:29.385Z,100.00
2023-02-13T19:14:00.206Z,100.00
2023-02-13T19:16:29.842Z,100.00
2023-02-13T19:19:00.991Z,100.00
2023-02-13T19:21:30.892Z,100.00
2023-02-13T19:23:57.634Z,100.00
2023-02-13T19:26:27.507Z,100.00
2023-02-13T19:28:55.918Z,100.00
2023-02-13T19:31:27.369Z,100.00
2023-02-13T19:33:54.154Z,100.00
2023-02-13T19:36:26.140Z,100.00
2023-02-13T19:39:06.639Z,100.00
2023-02-13T19:41:35.978Z,100.00
2023-02-13T19:44:02.607Z,100.00
2023-02-13T19:46:31.259Z,100.00
2023-02-13T19:48:58.590Z,100.00
2023-02-13T19:51:28.093Z,100.00
2023-02-13T19:54:02.515Z,100.00
2023-02-13T19:56:30.203Z,100.00
2023-02-13T19:58:57.664Z,100.00
2023-02-13T20:01:25.736Z,100.00
2023-02-13T20:03:52.924Z,100.00
2023-02-13T20:06:25.638Z,100.00
2023-02-13T20:08:52.737Z,100.00
2023-02-13T20:11:20.860Z,100.00
2023-02-13T20:13:47.953Z,100.00
2023-02-13T20:16:22.806Z,100.00
2023-02-13T20:18:49.861Z,100.00
2023-02-13T20:21:17.858Z,100.00
2023-02-13T20:23:57.077Z,100.00
2023-02-13T20:26:24.234Z,100.00
2023-02-13T20:28:50.849Z,100.00
2023-02-13T20:31:20.795Z,100.00
2023-02-13T20:33:49.513Z,100.00
2023-02-13T20:36:20.671Z,100.00
2023-02-13T20:38:48.027Z,100.00
2023-02-13T20:41:17.579Z,100.00
2023-02-13T20:43:45.084Z,100.00
2023-02-13T20:46:12.532Z,100.00
2023-02-13T20:48:42.569Z,100.00
2023-02-13T20:51:11.868Z,100.00
2023-02-13T20:53:39.378Z,100.00
2023-02-13T20:56:13.252Z,100.00
2023-02-13T20:58:43.503Z,100.00
2023-02-13T21:01:19.480Z,100.00
2023-02-13T21:03:50.076Z,100.00
2023-02-13T21:06:16.672Z,100.00
2023-02-13T21:08:43.712Z,100.00
2023-02-13T21:11:10.298Z,100.00
2023-02-13T21:13:36.814Z,100.00
2023-02-13T21:16:23.057Z,100.00
2023-02-13T21:18:52.255Z,100.00
2023-02-13T21:21:19.492Z,100.00
2023-02-13T21:23:46.752Z,100.00
2023-02-13T21:26:16.240Z,100.00
2023-02-13T21:28:45.961Z,100.00
2023-02-13T21:31:18.212Z,100.00
2023-02-13T21:33:45.223Z,100.00
2023-02-13T21:36:12.813Z,100.00
2023-02-13T21:38:42.227Z,100.00
2023-02-13T21:41:12.642Z,100.00
2023-02-13T21:43:40.098Z,100.00
2023-02-13T21:46:15.083Z,100.00
2023-02-13T21:48:42.113Z,100.00
2023-02-13T21:51:10.035Z,100.00
2023-02-13T21:53:43.456Z,100.00
2023-02-13T21:56:15.706Z,100.00
2023-02-13T21:58:43.580Z,100.00
2023-02-13T22:01:26.880Z,100.00
2023-02-13T22:04:01.136Z,100.00
2023-02-13T22:06:29.921Z,100.00
2023-02-13T22:09:17.347Z,100.00
2023-02-13T22:11:52.000Z,100.00
2023-02-13T22:14:19.399Z,100.00
2023-02-13T22:16:49.111Z,100.00
2023-02-13T22:19:16.323Z,100.00
2023-02-13T22:21:43.395Z,100.00
2023-02-13T22:24:10.983Z,100.00
2023-02-13T22:26:45.657Z,100.00
2023-02-13T22:29:14.512Z,100.00
2023-02-13T22:31:43.668Z,100.00
2023-02-13T22:34:15.065Z,100.00
2023-02-13T22:36:41.862Z,100.00
2023-02-13T22:39:10.596Z,100.00
2023-02-13T22:41:39.272Z,100.00
2023-02-13T22:44:06.414Z,100.00
2023-02-13T22:46:33.880Z,100.00
2023-02-13T22:49:01.230Z,100.00
2023-02-13T22:51:30.386Z,100.00
2023-02-13T22:53:58.412Z,100.00
2023-02-13T22:56:32.448Z,100.00
2023-02-13T22:58:59.160Z,100.00
2023-02-13T23:01:27.000Z,100.00
2023-02-13T23:03:55.699Z,100.00
2023-02-13T23:06:23.482Z,100.00
2023-02-13T23:08:53.973Z,100.00
2023-02-13T23:11:43.491Z,100.00
2023-02-13T23:14:10.912Z,100.00
2023-02-13T23:16:57.351Z,100.00
2023-02-13T23:19:27.454Z,100.00
2023-02-13T23:21:54.221Z,100.00
2023-02-13T23:24:22.596Z,100.00
2023-02-13T23:26:51.212Z,100.00
2023-02-13T23:29:17.844Z,100.00
2023-02-13T23:31:50.576Z,100.00
2023-02-13T23:34:17.181Z,100.00
2023-02-13T23:36:45.610Z,100.00
2023-02-13T23:39:14.300Z,100.00
2023-02-13T23:41:40.775Z,100.00
2023-02-13T23:44:07.578Z,100.00
2023-02-13T23:46:34.205Z,100.00
2023-02-13T23:49:00.845Z,100.00
2023-02-13T23:51:27.529Z,100.00
2023-02-13T23:53:58.391Z,100.00
2023-02-13T23:56:25.541Z,100.00
2023-02-13T23:58:52.615Z,100.00
